createdAt,value
2023-03-14T00:02:47.011Z,16.26
2023-03-14T00:05:49.234Z,16.18
2023-03-14T00:08:52.826Z,16.22
2023-03-14T00:11:55.075Z,15.96
2023-03-14T00:14:57.097Z,15.90
2023-03-14T00:17:59.080Z,15.94
2023-03-14T00:21:03.140Z,15.89
2023-03-14T00:24:05.399Z,15.89
2023-03-14T00:27:07.520Z,15.92
2023-03-14T00:30:10.393Z,16.06
2023-03-14T00:33:12.492Z,15.96
2023-03-14T00:36:18.602Z,15.63
2023-03-14T00:39:20.817Z,15.59
2023-03-14T00:42:23.433Z,15.46
2023-03-14T00:45:26.466Z,15.35
2023-03-14T00:48:29.076Z,15.27
2023-03-14T00:51:31.168Z,15.19
2023-03-14T00:54:33.677Z,15.14
2023-03-14T00:57:35.725Z,15.06
2023-03-14T01:00:37.780Z,14.94
2023-03-14T01:03:39.831Z,14.73
2023-03-14T01:06:41.957Z,14.65
2023-03-14T01:09:46.380Z,14.47
2023-03-14T01:12:48.579Z,14.41
2023-03-14T01:15:50.692Z,14.29
2023-03-14T01:18:53.560Z,14.19
2023-03-14T01:21:57.068Z,14.23
2023-03-14T01:24:59.056Z,14.29
2023-03-14T01:28:02.063Z,14.30
2023-03-14T01:31:07.017Z,14.32
2023-03-14T01:34:09.643Z,14.31
2023-03-14T01:37:13.074Z,14.30
2023-03-14T01:40:17.597Z,14.37
2023-03-14T01:43:21.949Z,14.36
2023-03-14T01:46:46.794Z,14.37
2023-03-14T01:49:56.575Z,14.40
2023-03-14T01:52:59.387Z,14.40
2023-03-14T01:56:01.802Z,14.42
2023-03-14T01:59:07.687Z,14.43
2023-03-14T02:02:12.816Z,14.42
2023-03-14T02:05:18.571Z,14.35
2023-03-14T02:08:25.661Z,14.37
2023-03-14T02:11:34.955Z,14.32
2023-03-14T02:14:57.228Z,14.36
2023-03-14T02:18:18.836Z,14.31
2023-03-14T02:22:09.048Z,14.37
2023-03-14T02:25:49.476Z,14.21
2023-03-14T02:28:54.337Z,14.27
2023-03-14T02:31:56.709Z,14.37
2023-03-14T02:35:01.686Z,14.35
2023-03-14T02:38:14.787Z,14.37
2023-03-14T02:41:19.663Z,14.43
2023-03-14T02:44:32.347Z,14.41
2023-03-14T02:47:38.063Z,14.32
2023-03-14T02:50:40.906Z,14.30
2023-03-14T02:53:43.864Z,14.32
2023-03-14T02:56:48.205Z,14.34
2023-03-14T02:59:50.373Z,14.36
2023-03-14T03:02:55.027Z,14.31
2023-03-14T03:05:57.893Z,14.35
2023-03-14T03:09:00.106Z,14.37
2023-03-14T03:12:02.235Z,14.37
2023-03-14T03:15:06.077Z,14.39
2023-03-14T03:18:11.616Z,14.42
2023-03-14T03:21:13.827Z,14.42
2023-03-14T03:24:18.806Z,14.42
2023-03-14T03:27:20.819Z,14.36
2023-03-14T03:30:23.232Z,14.42
2023-03-14T03:33:25.842Z,14.40
2023-03-14T03:36:28.807Z,14.37
2023-03-14T03:39:30.866Z,14.35
2023-03-14T03:42:34.349Z,14.39
2023-03-14T03:45:36.576Z,14.35
2023-03-14T03:48:39.117Z,14.42
2023-03-14T03:51:42.245Z,14.42
2023-03-14T03:54:44.749Z,14.45
2023-03-14T03:57:46.853Z,14.45
2023-03-14T04:00:48.931Z,14.51
2023-03-14T04:03:51.189Z,14.59
2023-03-14T04:06:54.451Z,14.57
2023-03-14T04:09:57.013Z,14.61
2023-03-14T04:13:11.975Z,14.68
2023-03-14T04:16:19.767Z,14.69
2023-03-14T04:19:22.485Z,14.74
2023-03-14T04:22:26.222Z,14.80
2023-03-14T04:25:29.516Z,14.68
2023-03-14T04:28:34.106Z,14.68
2023-03-14T04:31:36.395Z,14.55
2023-03-14T04:34:39.023Z,14.71
2023-03-14T04:37:43.024Z,14.87
2023-03-14T04:40:46.148Z,14.85
2023-03-14T04:43:49.438Z,14.87
2023-03-14T04:46:51.826Z,14.83
2023-03-14T04:49:53.920Z,14.82
2023-03-14T04:52:58.438Z,14.93
2023-03-14T04:56:01.257Z,14.84
2023-03-14T04:59:11.406Z,15.04
2023-03-14T05:02:17.377Z,15.18
2023-03-14T05:05:42.370Z,15.27
2023-03-14T05:09:08.626Z,15.38
2023-03-14T05:12:29.012Z,15.36
2023-03-14T05:15:37.990Z,15.40
2023-03-14T05:18:56.811Z,15.18
2023-03-14T05:22:28.323Z,15.53
2023-03-14T05:25:33.009Z,15.99
2023-03-14T05:28:57.795Z,16.58
2023-03-14T05:32:09.131Z,17.05
2023-03-14T05:35:32.986Z,17.27
2023-03-14T05:38:53.638Z,17.44
2023-03-14T05:42:18.858Z,17.84
2023-03-14T05:45:39.462Z,17.91
2023-03-14T05:48:56.472Z,17.85
2023-03-14T05:52:17.037Z,17.86
2023-03-14T05:55:40.324Z,17.86
2023-03-14T05:59:04.420Z,17.77
2023-03-14T06:02:16.894Z,17.82
2023-03-14T06:05:29.055Z,17.74
2023-03-14T06:08:35.715Z,17.87
2023-03-14T06:11:39.244Z,17.88
2023-03-14T06:14:42.962Z,17.91
2023-03-14T06:17:45.075Z,18.08
2023-03-14T06:20:48.710Z,18.21
2023-03-14T06:23:58.482Z,18.27
2023-03-14T06:27:04.111Z,18.58
2023-03-14T06:30:07.623Z,18.96
2023-03-14T06:33:09.774Z,19.38
2023-03-14T06:36:12.171Z,19.96
2023-03-14T06:39:17.776Z,20.59
2023-03-14T06:42:23.753Z,20.82
2023-03-14T06:45:27.721Z,20.81
2023-03-14T06:48:31.580Z,20.77
2023-03-14T06:51:34.174Z,20.64
2023-03-14T06:54:38.731Z,20.16
2023-03-14T06:57:40.919Z,20.10
2023-03-14T07:00:44.875Z,20.26
2023-03-14T07:03:50.128Z,20.62
2023-03-14T07:06:52.332Z,20.86
2023-03-14T07:09:54.899Z,20.89
2023-03-14T07:12:57.059Z,20.96
2023-03-14T07:16:02.274Z,20.63
2023-03-14T07:19:04.670Z,20.17
2023-03-14T07:22:07.851Z,19.97
2023-03-14T07:25:13.147Z,19.81
2023-03-14T07:28:15.459Z,19.63
2023-03-14T07:31:19.262Z,19.68
2023-03-14T07:34:22.240Z,19.69
2023-03-14T07:37:24.795Z,19.87
2023-03-14T07:40:27.414Z,19.61
2023-03-14T07:43:30.642Z,19.46
2023-03-14T07:46:36.379Z,19.45
2023-03-14T07:49:38.357Z,19.40
2023-03-14T07:52:40.608Z,19.34
2023-03-14T07:55:42.734Z,19.21
2023-03-14T07:58:44.802Z,19.14
2023-03-14T08:01:47.700Z,19.13
2023-03-14T08:04:50.348Z,19.22
2023-03-14T08:07:52.384Z,19.19
2023-03-14T08:10:54.393Z,19.04
2023-03-14T08:13:56.878Z,18.92
2023-03-14T08:16:59.089Z,18.81
2023-03-14T08:20:01.390Z,19.36
2023-03-14T08:23:07.021Z,19.38
2023-03-14T08:26:09.786Z,19.76
2023-03-14T08:29:14.036Z,20.01
2023-03-14T08:32:16.266Z,20.05
2023-03-14T08:35:18.521Z,20.01
2023-03-14T08:38:20.631Z,20.06
2023-03-14T08:41:22.827Z,20.27
2023-03-14T08:44:25.087Z,20.41
2023-03-14T08:47:27.387Z,20.26
2023-03-14T08:50:29.495Z,20.36
2023-03-14T08:53:31.734Z,20.38
2023-03-14T08:56:33.876Z,20.34
2023-03-14T08:59:35.940Z,20.33
2023-03-14T09:02:38.142Z,20.54
2023-03-14T09:05:40.146Z,20.58
2023-03-14T09:08:42.272Z,20.21
2023-03-14T09:11:44.432Z,20.47
2023-03-14T09:14:46.546Z,20.75
2023-03-14T09:17:48.639Z,21.29
2023-03-14T09:20:51.220Z,21.76
2023-03-14T09:23:54.011Z,21.94
2023-03-14T09:26:58.573Z,21.91
2023-03-14T09:30:00.916Z,21.26
2023-03-14T09:33:03.060Z,20.70
2023-03-14T09:36:07.220Z,20.50
2023-03-14T09:39:09.272Z,20.52
2023-03-14T09:42:17.166Z,20.39
2023-03-14T09:45:35.362Z,20.30
2023-03-14T09:48:37.544Z,20.28
2023-03-14T09:51:41.165Z,20.27
2023-03-14T09:54:54.352Z,20.09
2023-03-14T09:58:01.252Z,20.18
2023-03-14T10:01:04.918Z,20.51
2023-03-14T10:04:14.785Z,20.70
2023-03-14T10:07:37.279Z,20.89
2023-03-14T10:10:40.237Z,20.71
2023-03-14T10:14:06.007Z,20.53
2023-03-14T10:17:13.533Z,20.46
2023-03-14T10:20:38.436Z,20.65
2023-03-14T10:23:40.685Z,20.64
2023-03-14T10:26:43.471Z,20.51
2023-03-14T10:30:07.950Z,20.42
2023-03-14T10:33:19.745Z,20.27
2023-03-14T10:36:26.999Z,20.07
2023-03-14T10:39:40.231Z,20.22
2023-03-14T10:42:45.766Z,20.20
2023-03-14T10:45:58.955Z,20.16
2023-03-14T10:49:06.574Z,20.09
2023-03-14T10:52:51.018Z,20.14
2023-03-14T10:55:47.060Z,20.04
2023-03-14T10:58:51.588Z,20.01
2023-03-14T11:02:13.804Z,20.12
2023-03-14T11:05:25.589Z,20.22
2023-03-14T11:08:49.696Z,20.13
2023-03-14T11:11:51.820Z,20.12
2023-03-14T11:15:06.804Z,19.98
2023-03-14T11:18:37.441Z,19.97
2023-03-14T11:21:54.758Z,19.87
2023-03-14T11:25:05.815Z,19.85
2023-03-14T11:28:29.359Z,19.70
2023-03-14T11:31:36.503Z,19.64
2023-03-14T11:34:51.849Z,19.66
2023-03-14T11:38:14.931Z,19.56
2023-03-14T11:41:36.177Z,19.43
2023-03-14T11:44:40.841Z,19.38
2023-03-14T11:47:44.362Z,19.40
2023-03-14T11:50:51.713Z,19.46
2023-03-14T11:54:09.361Z,19.63
2023-03-14T11:57:20.535Z,19.58
2023-03-14T12:00:25.870Z,19.53
2023-03-14T12:03:42.364Z,19.45
2023-03-14T12:06:51.892Z,19.38
2023-03-14T12:09:55.955Z,19.46
2023-03-14T12:12:59.505Z,19.53
2023-03-14T12:16:07.031Z,19.39
2023-03-14T12:19:42.344Z,19.46
2023-03-14T12:22:55.373Z,19.45
2023-03-14T12:26:12.663Z,19.34
2023-03-14T12:29:18.448Z,19.36
2023-03-14T12:32:26.232Z,19.32
2023-03-14T12:35:40.521Z,19.33
2023-03-14T12:39:00.434Z,19.44
2023-03-14T12:42:08.551Z,19.38
2023-03-14T12:45:23.603Z,19.40
2023-03-14T12:48:27.993Z,19.47
2023-03-14T12:51:36.945Z,19.72
2023-03-14T12:54:50.517Z,19.64
2023-03-14T12:58:04.326Z,19.53
2023-03-14T13:01:08.843Z,19.69
2023-03-14T13:04:12.875Z,19.72
2023-03-14T13:07:45.494Z,19.70
2023-03-14T13:10:50.602Z,19.55
2023-03-14T13:14:00.453Z,19.46
2023-03-14T13:17:14.799Z,19.58
2023-03-14T13:20:32.583Z,19.55
2023-03-14T13:23:37.765Z,19.37
2023-03-14T13:26:44.165Z,19.36
2023-03-14T13:29:46.382Z,19.30
2023-03-14T13:32:50.245Z,19.19
2023-03-14T13:35:58.645Z,19.27
2023-03-14T13:39:03.897Z,19.26
2023-03-14T13:42:06.442Z,19.27
2023-03-14T13:45:15.392Z,19.19
2023-03-14T13:48:18.988Z,19.24
2023-03-14T13:51:22.172Z,19.15
2023-03-14T13:54:26.352Z,19.12
2023-03-14T13:57:43.800Z,19.14
2023-03-14T14:01:06.356Z,19.13
2023-03-14T14:04:15.934Z,19.07
2023-03-14T14:07:19.580Z,19.02
2023-03-14T14:10:23.214Z,18.96
2023-03-14T14:13:27.521Z,19.05
2023-03-14T14:16:31.713Z,19.32
2023-03-14T14:19:36.588Z,19.78
2023-03-14T14:22:39.434Z,19.79
2023-03-14T14:25:41.860Z,19.73
2023-03-14T14:28:43.855Z,20.14
2023-03-14T14:31:46.003Z,20.68
2023-03-14T14:35:01.244Z,20.52
2023-03-14T14:38:14.156Z,20.15
2023-03-14T14:41:17.760Z,19.90
2023-03-14T14:44:35.806Z,19.75
2023-03-14T14:48:00.978Z,19.83
2023-03-14T14:51:06.010Z,19.61
2023-03-14T14:54:15.214Z,19.43
2023-03-14T14:57:21.692Z,19.37
2023-03-14T15:00:28.835Z,19.19
2023-03-14T15:03:33.377Z,19.29
2023-03-14T15:06:35.343Z,19.30
2023-03-14T15:09:37.353Z,19.37
2023-03-14T15:12:39.327Z,19.24
2023-03-14T15:15:42.731Z,19.15
2023-03-14T15:18:45.641Z,19.25
2023-03-14T15:21:48.112Z,19.23
2023-03-14T15:24:50.206Z,19.04
2023-03-14T15:27:52.290Z,18.91
2023-03-14T15:30:59.587Z,18.86
2023-03-14T15:34:01.539Z,18.86
2023-03-14T15:37:08.251Z,18.74
2023-03-14T15:40:15.143Z,18.58
2023-03-14T15:43:18.584Z,18.46
2023-03-14T15:46:22.866Z,18.59
2023-03-14T15:49:25.035Z,18.70
2023-03-14T15:52:27.083Z,18.64
2023-03-14T15:55:29.024Z,18.84
2023-03-14T15:58:34.828Z,18.80
2023-03-14T16:01:37.063Z,18.67
2023-03-14T16:04:39.369Z,18.78
2023-03-14T16:07:41.630Z,18.92
2023-03-14T16:10:44.339Z,18.89
2023-03-14T16:13:46.354Z,18.73
2023-03-14T16:16:48.624Z,18.82
2023-03-14T16:19:50.882Z,18.83
2023-03-14T16:22:53.405Z,18.87
2023-03-14T16:25:56.751Z,18.84
2023-03-14T16:28:58.815Z,18.90
2023-03-14T16:32:01.149Z,19.20
2023-03-14T16:35:04.530Z,19.47
2023-03-14T16:38:06.770Z,19.74
2023-03-14T16:41:19.621Z,19.81
2023-03-14T16:44:21.990Z,19.94
2023-03-14T16:47:24.891Z,19.99
2023-03-14T16:50:26.868Z,20.00
2023-03-14T16:53:30.397Z,19.77
2023-03-14T16:56:32.790Z,19.65
2023-03-14T16:59:35.896Z,19.50
2023-03-14T17:02:38.688Z,19.50
2023-03-14T17:05:52.483Z,19.48
2023-03-14T17:08:56.877Z,19.27
2023-03-14T17:11:59.128Z,19.23
2023-03-14T17:15:01.262Z,19.20
2023-03-14T17:18:04.204Z,19.28
2023-03-14T17:21:06.716Z,19.22
2023-03-14T17:24:08.697Z,19.17
2023-03-14T17:27:10.956Z,19.19
2023-03-14T17:30:13.903Z,18.97
2023-03-14T17:33:16.842Z,18.67
2023-03-14T17:36:19.508Z,18.83
2023-03-14T17:39:21.574Z,18.79
2023-03-14T17:42:23.969Z,18.65
2023-03-14T17:45:26.275Z,18.49
2023-03-14T17:48:28.880Z,18.60
2023-03-14T17:51:30.935Z,18.63
2023-03-14T17:54:33.181Z,18.49
2023-03-14T17:57:38.744Z,18.41
2023-03-14T18:00:40.906Z,18.32
2023-03-14T18:03:44.995Z,18.07
2023-03-14T18:06:47.128Z,18.06
2023-03-14T18:09:49.289Z,18.04
2023-03-14T18:12:51.667Z,17.84
2023-03-14T18:15:53.726Z,17.79
2023-03-14T18:18:57.772Z,17.73
2023-03-14T18:21:59.772Z,17.63
2023-03-14T18:25:02.290Z,17.59
2023-03-14T18:28:04.375Z,17.60
2023-03-14T18:31:12.820Z,17.64
2023-03-14T18:34:14.873Z,17.62
2023-03-14T18:37:17.101Z,17.68
2023-03-14T18:40:20.553Z,17.61
2023-03-14T18:43:22.760Z,17.56
2023-03-14T18:46:24.998Z,17.60
2023-03-14T18:49:27.272Z,17.60
2023-03-14T18:52:48.921Z,17.51
2023-03-14T18:55:55.132Z,17.48
2023-03-14T18:58:59.808Z,17.34
2023-03-14T19:02:02.069Z,17.37
2023-03-14T19:05:04.479Z,17.42
2023-03-14T19:08:07.844Z,17.13
2023-03-14T19:11:14.533Z,17.08
2023-03-14T19:14:20.705Z,16.89
2023-03-14T19:17:23.047Z,16.98
2023-03-14T19:20:25.251Z,16.89
2023-03-14T19:23:28.984Z,16.85
2023-03-14T19:26:33.771Z,17.20
2023-03-14T19:29:42.284Z,17.24
2023-03-14T19:32:44.400Z,17.17
2023-03-14T19:35:47.570Z,16.93
2023-03-14T19:38:50.342Z,16.71
2023-03-14T19:41:57.761Z,16.83
2023-03-14T19:44:59.970Z,16.80
2023-03-14T19:48:04.366Z,16.99
2023-03-14T19:51:06.627Z,16.80
2023-03-14T19:54:08.890Z,16.80
2023-03-14T19:57:14.103Z,16.78
2023-03-14T20:00:19.765Z,16.69
2023-03-14T20:03:23.953Z,16.68
2023-03-14T20:06:26.126Z,16.92
2023-03-14T20:09:28.376Z,16.75
2023-03-14T20:12:32.166Z,16.65
2023-03-14T20:15:39.324Z,16.74
2023-03-14T20:18:41.818Z,16.60
2023-03-14T20:21:43.940Z,16.42
2023-03-14T20:24:46.280Z,16.44
2023-03-14T20:27:54.401Z,16.34
2023-03-14T20:30:57.668Z,16.35
2023-03-14T20:34:00.438Z,16.27
2023-03-14T20:37:03.362Z,16.25
2023-03-14T20:40:13.475Z,16.12
2023-03-14T20:43:15.602Z,16.10
2023-03-14T20:46:19.231Z,16.13
2023-03-14T20:49:21.527Z,16.10
2023-03-14T20:52:23.652Z,16.02
2023-03-14T20:55:25.738Z,15.97
2023-03-14T20:58:28.109Z,16.05
2023-03-14T21:01:31.618Z,16.03
2023-03-14T21:04:34.138Z,16.03
2023-03-14T21:07:41.683Z,15.93
2023-03-14T21:10:46.345Z,15.95
2023-03-14T21:13:48.397Z,15.88
2023-03-14T21:16:50.873Z,16.00
2023-03-14T21:19:58.432Z,15.93
2023-03-14T21:23:00.733Z,15.89
2023-03-14T21:26:03.374Z,15.82
2023-03-14T21:29:05.706Z,15.83
2023-03-14T21:32:13.197Z,15.87
2023-03-14T21:35:15.439Z,15.86
2023-03-14T21:38:17.504Z,15.83
2023-03-14T21:41:19.642Z,15.72
2023-03-14T21:44:22.525Z,15.76
2023-03-14T21:47:24.588Z,15.87
2023-03-14T21:50:27.698Z,15.79
2023-03-14T21:53:30.042Z,15.78
2023-03-14T21:56:32.130Z,15.72
2023-03-14T21:59:36.286Z,15.69
2023-03-14T22:02:38.509Z,15.62
2023-03-14T22:05:45.564Z,15.61
2023-03-14T22:08:47.655Z,15.67
2023-03-14T22:11:49.696Z,15.61
2023-03-14T22:14:51.789Z,15.55
2023-03-14T22:17:53.919Z,15.61
2023-03-14T22:20:56.140Z,15.56
2023-03-14T22:23:58.264Z,15.61
2023-03-14T22:27:00.580Z,15.54
2023-03-14T22:30:08.713Z,15.57
2023-03-14T22:33:10.766Z,15.59
2023-03-14T22:36:12.803Z,15.53
2023-03-14T22:39:15.082Z,15.44
2023-03-14T22:42:17.178Z,15.38
2023-03-14T22:45:19.458Z,15.41
2023-03-14T22:48:21.516Z,15.31
2023-03-14T22:51:23.730Z,15.31
2023-03-14T22:54:25.881Z,15.28
2023-03-14T22:57:28.207Z,15.09
2023-03-14T23:00:30.553Z,15.16
2023-03-14T23:03:32.960Z,15.17
2023-03-14T23:06:35.158Z,15.14
2023-03-14T23:09:40.048Z,15.05
2023-03-14T23:12:42.206Z,14.94
2023-03-14T23:15:44.510Z,14.98
2023-03-14T23:18:47.280Z,14.91
2023-03-14T23:21:49.395Z,14.89
2023-03-14T23:24:51.453Z,14.83
2023-03-14T23:27:54.387Z,14.82
2023-03-14T23:30:57.783Z,14.78
2023-03-14T23:33:59.937Z,14.65
2023-03-14T23:37:02.133Z,14.50
2023-03-14T23:40:06.358Z,14.40
2023-03-14T23:43:08.485Z,14.45
2023-03-14T23:46:11.130Z,14.45
2023-03-14T23:49:13.438Z,14.37
2023-03-14T23:52:15.696Z,14.18
2023-03-14T23:55:18.055Z,14.11
2023-03-14T23:58:21.652Z,14.24
